sensor_id;sensor_type;location;lat;lon;timestamp;pressure;altitude;pressure_sealevel;temperature;humidity
20037;BME280;10179;42.640;23.312;2023-03-04T00:00:18;93713.91;;;10.06;62.50
20037;BME280;10179;42.640;23.312;2023-03-04T00:02:43;93714.09;;;10.11;62.70
20037;BME280;10179;42.640;23.312;2023-03-04T00:05:10;93723.56;;;10.12;62.79
20037;BME280;10179;42.640;23.312;2023-03-04T00:07:35;93716.72;;;10.11;62.73
20037;BME280;10179;42.640;23.312;2023-03-04T00:10:01;93715.09;;;10.10;62.63
20037;BME280;10179;42.640;23.312;2023-03-04T00:12:26;93711.91;;;10.08;62.51
20037;BME280;10179;42.640;23.312;2023-03-04T00:14:52;93711.72;;;10.03;62.31
20037;BME280;10179;42.640;23.312;2023-03-04T00:17:17;93707.94;;;9.99;62.37
20037;BME280;10179;42.640;23.312;2023-03-04T00:19:42;93711.00;;;9.96;62.58
20037;BME280;10179;42.640;23.312;2023-03-04T00:22:08;93692.72;;;9.89;62.83
20037;BME280;10179;42.640;23.312;2023-03-04T00:24:33;93593.91;;;9.16;62.49
20037;BME280;10179;42.640;23.312;2023-03-04T00:26:59;93703.63;;;9.86;62.43
20037;BME280;10179;42.640;23.312;2023-03-04T00:29:24;93694.84;;;9.80;62.90
20037;BME280;10179;42.640;23.312;2023-03-04T00:31:50;93707.09;;;9.87;62.62
20037;BME280;10179;42.640;23.312;2023-03-04T00:34:15;93704.47;;;9.87;62.68
20037;BME280;10179;42.640;23.312;2023-03-04T00:36:41;93700.22;;;9.86;62.86
20037;BME280;10179;42.640;23.312;2023-03-04T00:39:09;93692.22;;;9.80;63.28
20037;BME280;10179;42.640;23.312;2023-03-04T00:41:35;93701.03;;;9.86;62.89
20037;BME280;10179;42.640;23.312;2023-03-04T00:44:00;93696.44;;;9.82;62.85
20037;BME280;10179;42.640;23.312;2023-03-04T00:46:26;93702.41;;;9.89;63.10
20037;BME280;10179;42.640;23.312;2023-03-04T00:48:51;93705.63;;;9.91;62.84
20037;BME280;10179;42.640;23.312;2023-03-04T00:51:16;93689.72;;;9.86;62.91
20037;BME280;10179;42.640;23.312;2023-03-04T00:53:42;93705.63;;;9.91;62.97
20037;BME280;10179;42.640;23.312;2023-03-04T00:56:07;93702.22;;;9.90;62.94
20037;BME280;10179;42.640;23.312;2023-03-04T00:58:33;93675.31;;;9.76;62.88
20037;BME280;10179;42.640;23.312;2023-03-04T01:00:58;93689.28;;;9.89;62.98
20037;BME280;10179;42.640;23.312;2023-03-04T01:03:23;93699.06;;;10.00;63.17
20037;BME280;10179;42.640;23.312;2023-03-04T01:05:51;93701.25;;;10.03;63.05
20037;BME280;10179;42.640;23.312;2023-03-04T01:08:16;93697.63;;;10.04;62.98
20037;BME280;10179;42.640;23.312;2023-03-04T01:10:42;93691.34;;;10.05;62.78
20037;BME280;10179;42.640;23.312;2023-03-04T01:13:07;93695.00;;;10.04;62.83
20037;BME280;10179;42.640;23.312;2023-03-04T01:15:32;93692.56;;;10.02;62.64
20037;BME280;10179;42.640;23.312;2023-03-04T01:17:58;93696.78;;;10.03;62.73
20037;BME280;10179;42.640;23.312;2023-03-04T01:20:23;93693.38;;;10.03;62.72
20037;BME280;10179;42.640;23.312;2023-03-04T01:22:49;93682.88;;;10.03;62.82
20037;BME280;10179;42.640;23.312;2023-03-04T01:25:14;93681.28;;;10.02;62.50
20037;BME280;10179;42.640;23.312;2023-03-04T01:27:40;93677.69;;;9.96;62.22
20037;BME280;10179;42.640;23.312;2023-03-04T01:30:06;93675.38;;;9.88;62.07
20037;BME280;10179;42.640;23.312;2023-03-04T01:32:31;93668.03;;;9.78;62.14
20037;BME280;10179;42.640;23.312;2023-03-04T01:34:56;93677.00;;;9.71;62.02
20037;BME280;10179;42.640;23.312;2023-03-04T01:37:22;93605.09;;;9.23;62.48
20037;BME280;10179;42.640;23.312;2023-03-04T01:39:47;93676.06;;;9.65;62.68
20037;BME280;10179;42.640;23.312;2023-03-04T01:42:19;93668.31;;;9.70;62.86
20037;BME280;10179;42.640;23.312;2023-03-04T01:44:46;93668.31;;;9.70;62.81
20037;BME280;10179;42.640;23.312;2023-03-04T01:47:12;93663.88;;;9.71;62.89
20037;BME280;10179;42.640;23.312;2023-03-04T01:49:38;93664.66;;;9.71;62.38
20037;BME280;10179;42.640;23.312;2023-03-04T01:52:04;93647.47;;;9.57;62.35
20037;BME280;10179;42.640;23.312;2023-03-04T01:54:30;93642.69;;;9.54;62.59
20037;BME280;10179;42.640;23.312;2023-03-04T01:56:57;93637.44;;;9.54;62.71
20037;BME280;10179;42.640;23.312;2023-03-04T01:59:25;93632.56;;;9.57;62.89
20037;BME280;10179;42.640;23.312;2023-03-04T02:01:57;93614.06;;;9.52;63.05
20037;BME280;10179;42.640;23.312;2023-03-04T02:04:26;93658.91;;;9.81;62.67
20037;BME280;10179;42.640;23.312;2023-03-04T02:06:52;93654.13;;;9.78;62.54
20037;BME280;10179;42.640;23.312;2023-03-04T02:09:19;93658.13;;;9.80;62.76
20037;BME280;10179;42.640;23.312;2023-03-04T02:11:46;93650.97;;;9.88;62.51
20037;BME280;10179;42.640;23.312;2023-03-04T02:14:12;93658.41;;;9.91;62.49
20037;BME280;10179;42.640;23.312;2023-03-04T02:16:38;93642.25;;;9.94;62.45
20037;BME280;10179;42.640;23.312;2023-03-04T02:19:13;93644.19;;;9.98;62.37
20037;BME280;10179;42.640;23.312;2023-03-04T02:21:40;93456.94;;;8.72;61.83
20037;BME280;10179;42.640;23.312;2023-03-04T02:26:40;93648.78;;;9.85;61.67
20037;BME280;10179;42.640;23.312;2023-03-04T02:29:09;93644.41;;;9.78;61.26
20037;BME280;10179;42.640;23.312;2023-03-04T02:31:46;93648.06;;;9.77;61.75
20037;BME280;10179;42.640;23.312;2023-03-04T02:34:23;93651.78;;;9.70;61.72
20037;BME280;10179;42.640;23.312;2023-03-04T02:36:50;93645.47;;;9.59;61.44
20037;BME280;10179;42.640;23.312;2023-03-04T02:41:49;93619.75;;;9.31;61.33
20037;BME280;10179;42.640;23.312;2023-03-04T02:46:42;93637.38;;;9.42;61.71
20037;BME280;10179;42.640;23.312;2023-03-04T02:49:07;93638.75;;;9.45;61.64
20037;BME280;10179;42.640;23.312;2023-03-04T02:51:32;93632.25;;;9.47;61.68
20037;BME280;10179;42.640;23.312;2023-03-04T02:53:58;93627.00;;;9.47;61.32
20037;BME280;10179;42.640;23.312;2023-03-04T02:56:23;93598.97;;;9.29;61.44
20037;BME280;10179;42.640;23.312;2023-03-04T02:58:49;93637.88;;;9.51;61.56
20037;BME280;10179;42.640;23.312;2023-03-04T03:01:14;93610.19;;;9.37;61.70
20037;BME280;10179;42.640;23.312;2023-03-04T03:03:39;93419.31;;;8.05;61.42
20037;BME280;10179;42.640;23.312;2023-03-04T03:06:05;93638.94;;;9.62;61.15
20037;BME280;10179;42.640;23.312;2023-03-04T03:08:31;93640.34;;;9.64;61.21
20037;BME280;10179;42.640;23.312;2023-03-04T03:10:56;93640.72;;;9.68;61.10
20037;BME280;10179;42.640;23.312;2023-03-04T03:13:21;93638.44;;;9.71;61.13
20037;BME280;10179;42.640;23.312;2023-03-04T03:15:47;93639.03;;;9.73;60.89
20037;BME280;10179;42.640;23.312;2023-03-04T03:18:12;93557.94;;;9.23;60.69
20037;BME280;10179;42.640;23.312;2023-03-04T03:20:38;93638.00;;;9.74;60.66
20037;BME280;10179;42.640;23.312;2023-03-04T03:23:03;93625.56;;;9.70;60.61
20037;BME280;10179;42.640;23.312;2023-03-04T03:25:29;93626.38;;;9.70;60.32
20037;BME280;10179;42.640;23.312;2023-03-04T03:27:54;93632.34;;;9.77;60.41
20037;BME280;10179;42.640;23.312;2023-03-04T03:30:20;93618.72;;;9.69;60.46
20037;BME280;10179;42.640;23.312;2023-03-04T03:32:45;93628.69;;;9.78;60.37
20037;BME280;10179;42.640;23.312;2023-03-04T03:35:10;93619.09;;;9.72;60.21
20037;BME280;10179;42.640;23.312;2023-03-04T03:37:36;93638.00;;;9.74;60.58
20037;BME280;10179;42.640;23.312;2023-03-04T03:40:02;93620.69;;;9.73;60.24
20037;BME280;10179;42.640;23.312;2023-03-04T03:42:28;93626.28;;;9.77;60.11
20037;BME280;10179;42.640;23.312;2023-03-04T03:44:53;93619.47;;;9.76;59.93
20037;BME280;10179;42.640;23.312;2023-03-04T03:47:20;93619.88;;;9.73;59.69
20037;BME280;10179;42.640;23.312;2023-03-04T03:49:45;93624.78;;;9.69;59.37
20037;BME280;10179;42.640;23.312;2023-03-04T03:52:11;93617.53;;;9.65;59.34
20037;BME280;10179;42.640;23.312;2023-03-04T03:54:36;93626.31;;;9.59;59.19
20037;BME280;10179;42.640;23.312;2023-03-04T03:57:02;93613.28;;;9.52;59.36
20037;BME280;10179;42.640;23.312;2023-03-04T03:59:27;93545.25;;;9.02;59.18
20037;BME280;10179;42.640;23.312;2023-03-04T04:01:53;93612.19;;;9.41;59.35
20037;BME280;10179;42.640;23.312;2023-03-04T04:04:18;93617.06;;;9.38;59.28
20037;BME280;10179;42.640;23.312;2023-03-04T04:06:43;93597.38;;;9.28;59.25
20037;BME280;10179;42.640;23.312;2023-03-04T04:09:09;93611.66;;;9.32;59.29
20037;BME280;10179;42.640;23.312;2023-03-04T04:11:35;93550.69;;;8.82;59.11
20037;BME280;10179;42.640;23.312;2023-03-04T04:14:01;93611.56;;;9.21;58.88
20037;BME280;10179;42.640;23.312;2023-03-04T04:16:26;93558.94;;;8.86;58.90
20037;BME280;10179;42.640;23.312;2023-03-04T04:18:52;93607.63;;;9.12;58.99
20037;BME280;10179;42.640;23.312;2023-03-04T04:21:17;93607.25;;;9.08;58.70
20037;BME280;10179;42.640;23.312;2023-03-04T04:23:43;93606.09;;;9.04;58.80
20037;BME280;10179;42.640;23.312;2023-03-04T04:26:08;93601.28;;;9.01;58.86
20037;BME280;10179;42.640;23.312;2023-03-04T04:28:34;93606.94;;;8.98;58.56
20037;BME280;10179;42.640;23.312;2023-03-04T04:30:59;93607.00;;;8.91;58.23
20037;BME280;10179;42.640;23.312;2023-03-04T04:33:25;93479.28;;;8.00;58.39
20037;BME280;10179;42.640;23.312;2023-03-04T04:35:50;93566.69;;;8.49;58.40
20037;BME280;10179;42.640;23.312;2023-03-04T04:38:16;93588.53;;;8.61;58.45
20037;BME280;10179;42.640;23.312;2023-03-04T04:40:41;93608.41;;;8.69;58.41
20037;BME280;10179;42.640;23.312;2023-03-04T04:43:07;93590.25;;;8.49;58.27
20037;BME280;10179;42.640;23.312;2023-03-04T04:45:33;93541.59;;;8.09;58.37
20037;BME280;10179;42.640;23.312;2023-03-04T04:47:58;93606.13;;;8.54;58.20
20037;BME280;10179;42.640;23.312;2023-03-04T04:50:24;93609.56;;;8.48;58.32
20037;BME280;10179;42.640;23.312;2023-03-04T04:52:49;93606.59;;;8.44;58.22
20037;BME280;10179;42.640;23.312;2023-03-04T04:55:15;93612.25;;;8.41;58.47
20037;BME280;10179;42.640;23.312;2023-03-04T04:57:40;93575.31;;;8.18;58.40
20037;BME280;10179;42.640;23.312;2023-03-04T05:00:07;93612.47;;;8.40;58.64
20037;BME280;10179;42.640;23.312;2023-03-04T05:02:32;93614.47;;;8.38;58.44
20037;BME280;10179;42.640;23.312;2023-03-04T05:05:01;93620.50;;;8.38;58.51
20037;BME280;10179;42.640;23.312;2023-03-04T05:07:27;93623.91;;;8.39;58.55
20037;BME280;10179;42.640;23.312;2023-03-04T05:09:52;93604.66;;;8.26;58.27
20037;BME280;10179;42.640;23.312;2023-03-04T05:12:18;93632.38;;;8.41;58.71
20037;BME280;10179;42.640;23.312;2023-03-04T05:14:43;93627.75;;;8.43;58.62
20037;BME280;10179;42.640;23.312;2023-03-04T05:17:08;93628.75;;;8.42;58.54
20037;BME280;10179;42.640;23.312;2023-03-04T05:19:34;93626.34;;;8.40;58.31
20037;BME280;10179;42.640;23.312;2023-03-04T05:21:59;93620.53;;;8.31;58.46
20037;BME280;10179;42.640;23.312;2023-03-04T05:24:25;93613.53;;;8.25;58.67
20037;BME280;10179;42.640;23.312;2023-03-04T05:26:50;93634.78;;;8.42;58.81
20037;BME280;10179;42.640;23.312;2023-03-04T05:29:16;93644.41;;;8.48;58.84
20037;BME280;10179;42.640;23.312;2023-03-04T05:31:41;93650.00;;;8.52;58.89
20037;BME280;10179;42.640;23.312;2023-03-04T05:34:06;93597.25;;;8.23;58.86
20037;BME280;10179;42.640;23.312;2023-03-04T05:36:32;93633.88;;;8.55;58.92
20037;BME280;10179;42.640;23.312;2023-03-04T05:38:57;93650.06;;;8.70;59.12
20037;BME280;10179;42.640;23.312;2023-03-04T05:41:23;93647.41;;;8.77;58.95
20037;BME280;10179;42.640;23.312;2023-03-04T05:43:49;93651.44;;;8.79;58.93
20037;BME280;10179;42.640;23.312;2023-03-04T05:46:16;93650.59;;;8.86;59.14
20037;BME280;10179;42.640;23.312;2023-03-04T05:48:43;93653.34;;;8.91;59.00
20037;BME280;10179;42.640;23.312;2023-03-04T05:51:09;93658.34;;;8.99;58.94
20037;BME280;10179;42.640;23.312;2023-03-04T05:53:35;93481.34;;;7.98;58.91
20037;BME280;10179;42.640;23.312;2023-03-04T05:56:13;93663.97;;;9.21;59.32
20037;BME280;10179;42.640;23.312;2023-03-04T05:58:39;93654.91;;;9.23;58.88
20037;BME280;10179;42.640;23.312;2023-03-04T06:01:04;93655.84;;;9.29;59.10
20037;BME280;10179;42.640;23.312;2023-03-04T06:03:30;93651.94;;;9.38;58.92
20037;BME280;10179;42.640;23.312;2023-03-04T06:05:55;93656.06;;;9.46;59.08
20037;BME280;10179;42.640;23.312;2023-03-04T06:08:21;93656.81;;;9.53;58.84
20037;BME280;10179;42.640;23.312;2023-03-04T06:10:47;93671.69;;;9.59;58.85
20037;BME280;10179;42.640;23.312;2023-03-04T06:13:12;93639.13;;;9.48;58.70
20037;BME280;10179;42.640;23.312;2023-03-04T06:15:38;93661.47;;;9.69;58.60
20037;BME280;10179;42.640;23.312;2023-03-04T06:18:05;93656.25;;;9.69;58.50
20037;BME280;10179;42.640;23.312;2023-03-04T06:20:31;93667.28;;;9.71;58.17
20037;BME280;10179;42.640;23.312;2023-03-04T06:22:57;93667.47;;;9.76;57.95
20037;BME280;10179;42.640;23.312;2023-03-04T06:25:23;93667.91;;;9.73;57.96
20037;BME280;10179;42.640;23.312;2023-03-04T06:27:48;93638.75;;;9.45;57.96
20037;BME280;10179;42.640;23.312;2023-03-04T06:30:15;93677.22;;;9.69;57.93
20037;BME280;10179;42.640;23.312;2023-03-04T06:32:40;93668.31;;;9.70;58.15
20037;BME280;10179;42.640;23.312;2023-03-04T06:35:09;93674.59;;;9.69;57.81
20037;BME280;10179;42.640;23.312;2023-03-04T06:37:35;93657.59;;;9.53;57.92
20037;BME280;10179;42.640;23.312;2023-03-04T06:40:01;93673.56;;;9.70;58.17
20037;BME280;10179;42.640;23.312;2023-03-04T06:42:28;93677.34;;;9.74;58.24
20037;BME280;10179;42.640;23.312;2023-03-04T06:44:53;93677.50;;;9.79;58.05
20037;BME280;10179;42.640;23.312;2023-03-04T06:47:19;93681.88;;;9.86;57.94
20037;BME280;10179;42.640;23.312;2023-03-04T06:49:44;93626.81;;;9.49;57.71
20037;BME280;10179;42.640;23.312;2023-03-04T06:52:10;93637.06;;;9.50;57.62
20037;BME280;10179;42.640;23.312;2023-03-04T06:54:37;93690.69;;;9.91;57.50
20037;BME280;10179;42.640;23.312;2023-03-04T06:57:02;93696.38;;;9.88;57.15
20037;BME280;10179;42.640;23.312;2023-03-04T06:59:28;93693.69;;;9.76;57.34
20037;BME280;10179;42.640;23.312;2023-03-04T07:01:53;93689.16;;;9.84;57.25
20037;BME280;10179;42.640;23.312;2023-03-04T07:04:19;93673.56;;;9.70;57.00
20037;BME280;10179;42.640;23.312;2023-03-04T07:06:44;93693.81;;;9.82;57.19
20037;BME280;10179;42.640;23.312;2023-03-04T07:09:09;93700.09;;;9.80;57.24
20037;BME280;10179;42.640;23.312;2023-03-04T07:11:35;93684.78;;;9.77;57.15
20037;BME280;10179;42.640;23.312;2023-03-04T07:14:00;93619.16;;;9.29;57.37
20037;BME280;10179;42.640;23.312;2023-03-04T07:16:26;93700.47;;;9.84;57.19
20037;BME280;10179;42.640;23.312;2023-03-04T07:18:51;93696.44;;;9.82;57.17
20037;BME280;10179;42.640;23.312;2023-03-04T07:21:17;93634.38;;;9.39;57.29
20037;BME280;10179;42.640;23.312;2023-03-04T07:23:43;93696.44;;;9.82;57.05
20037;BME280;10179;42.640;23.312;2023-03-04T07:26:09;93696.88;;;9.78;57.11
20037;BME280;10179;42.640;23.312;2023-03-04T07:28:35;93670.28;;;9.56;57.36
20037;BME280;10179;42.640;23.312;2023-03-04T07:31:32;93703.75;;;9.79;57.36
20037;BME280;10179;42.640;23.312;2023-03-04T07:34:01;93701.38;;;9.71;57.27
20037;BME280;10179;42.640;23.312;2023-03-04T07:36:27;93703.44;;;9.69;57.51
20037;BME280;10179;42.640;23.312;2023-03-04T07:38:53;93677.34;;;9.56;57.47
20037;BME280;10179;42.640;23.312;2023-03-04T07:41:23;93707.06;;;9.68;57.72
20037;BME280;10179;42.640;23.312;2023-03-04T07:43:50;93698.25;;;9.63;57.96
20037;BME280;10179;42.640;23.312;2023-03-04T07:46:16;93708.81;;;9.74;57.84
20037;BME280;10179;42.640;23.312;2023-03-04T07:48:42;93700.97;;;9.74;57.46
20037;BME280;10179;42.640;23.312;2023-03-04T07:51:16;93689.44;;;9.75;57.80
20037;BME280;10179;42.640;23.312;2023-03-04T07:53:44;93695.28;;;9.77;57.79
20037;BME280;10179;42.640;23.312;2023-03-04T07:56:12;93695.88;;;9.79;57.80
20037;BME280;10179;42.640;23.312;2023-03-04T07:58:38;93634.38;;;9.39;57.41
20037;BME280;10179;42.640;23.312;2023-03-04T08:01:11;93696.88;;;9.78;57.40
20037;BME280;10179;42.640;23.312;2023-03-04T08:03:37;93693.53;;;9.71;57.35
20037;BME280;10179;42.640;23.312;2023-03-04T08:06:05;93622.00;;;9.27;57.20
20037;BME280;10179;42.640;23.312;2023-03-04T08:08:31;93693.31;;;9.73;57.28
20037;BME280;10179;42.640;23.312;2023-03-04T08:10:57;93683.91;;;9.65;57.16
20037;BME280;10179;42.640;23.312;2023-03-04T08:13:22;93687.28;;;9.72;57.13
20037;BME280;10179;42.640;23.312;2023-03-04T08:15:48;93692.88;;;9.76;56.78
20037;BME280;10179;42.640;23.312;2023-03-04T08:18:13;93686.69;;;9.70;56.91
20037;BME280;10179;42.640;23.312;2023-03-04T08:20:41;93692.78;;;9.83;57.17
20037;BME280;10179;42.640;23.312;2023-03-04T08:23:09;93687.53;;;9.83;57.11
20037;BME280;10179;42.640;23.312;2023-03-04T08:25:38;93692.22;;;9.99;57.11
20037;BME280;10179;42.640;23.312;2023-03-04T08:28:04;93687.31;;;10.02;56.70
20037;BME280;10179;42.640;23.312;2023-03-04T08:30:29;93689.88;;;10.09;56.80
20037;BME280;10179;42.640;23.312;2023-03-04T08:32:55;93688.75;;;10.17;56.72
20037;BME280;10179;42.640;23.312;2023-03-04T08:35:20;93684.06;;;10.25;56.70
20037;BME280;10179;42.640;23.312;2023-03-04T08:37:45;93672.94;;;10.23;56.37
20037;BME280;10179;42.640;23.312;2023-03-04T08:40:12;93668.13;;;10.20;56.04
20037;BME280;10179;42.640;23.312;2023-03-04T08:42:37;93663.63;;;10.27;55.82
20037;BME280;10179;42.640;23.312;2023-03-04T08:45:03;93686.84;;;10.42;55.76
20037;BME280;10179;42.640;23.312;2023-03-04T08:47:29;93675.81;;;10.52;55.89
20037;BME280;10179;42.640;23.312;2023-03-04T08:49:54;93682.13;;;10.63;55.68
20037;BME280;10179;42.640;23.312;2023-03-04T08:52:19;93657.94;;;10.61;55.59
20037;BME280;10179;42.640;23.312;2023-03-04T08:54:46;93630.53;;;10.57;55.55
20037;BME280;10179;42.640;23.312;2023-03-04T08:57:11;93675.13;;;10.98;55.40
20037;BME280;10179;42.640;23.312;2023-03-04T08:59:37;93620.84;;;10.81;55.36
20037;BME280;10179;42.640;23.312;2023-03-04T09:02:02;93521.00;;;10.34;55.32
20037;BME280;10179;42.640;23.312;2023-03-04T09:04:27;93663.84;;;11.45;54.42
20037;BME280;10179;42.640;23.312;2023-03-04T09:06:53;93661.13;;;11.52;53.58
20037;BME280;10179;42.640;23.312;2023-03-04T09:09:18;93667.94;;;11.64;53.33
20037;BME280;10179;42.640;23.312;2023-03-04T09:11:44;93667.94;;;11.76;52.96
20037;BME280;10179;42.640;23.312;2023-03-04T09:14:09;93661.09;;;11.87;52.56
20037;BME280;10179;42.640;23.312;2023-03-04T09:16:34;93652.03;;;11.94;52.18
20037;BME280;10179;42.640;23.312;2023-03-04T09:19:00;93654.63;;;12.06;51.58
20037;BME280;10179;42.640;23.312;2023-03-04T09:21:25;93655.28;;;12.13;51.18
20037;BME280;10179;42.640;23.312;2023-03-04T09:23:51;93656.91;;;12.14;50.35
20037;BME280;10179;42.640;23.312;2023-03-04T09:26:21;93655.28;;;12.13;50.32
20037;BME280;10179;42.640;23.312;2023-03-04T09:28:51;93648.91;;;12.09;50.14
20037;BME280;10179;42.640;23.312;2023-03-04T09:31:17;93653.25;;;12.04;50.15
20037;BME280;10179;42.640;23.312;2023-03-04T09:33:43;93639.09;;;11.93;49.79
20037;BME280;10179;42.640;23.312;2023-03-04T09:36:10;93647.94;;;11.87;49.72
20037;BME280;10179;42.640;23.312;2023-03-04T09:38:37;93647.91;;;11.75;49.68
20037;BME280;10179;42.640;23.312;2023-03-04T09:41:11;93651.94;;;11.66;49.96
20037;BME280;10179;42.640;23.312;2023-03-04T09:43:38;93631.84;;;11.48;50.11
20037;BME280;10179;42.640;23.312;2023-03-04T09:46:09;93653.66;;;11.60;50.18
20037;BME280;10179;42.640;23.312;2023-03-04T09:48:45;93645.75;;;11.60;50.64
20037;BME280;10179;42.640;23.312;2023-03-04T09:56:41;93643.09;;;11.72;50.59
20037;BME280;10179;42.640;23.312;2023-03-04T09:59:27;93652.38;;;11.75;50.58
20037;BME280;10179;42.640;23.312;2023-03-04T10:01:56;93595.16;;;11.41;50.13
20037;BME280;10179;42.640;23.312;2023-03-04T10:04:33;93636.50;;;11.69;50.52
20037;BME280;10179;42.640;23.312;2023-03-04T10:07:01;93635.91;;;11.67;50.63
20037;BME280;10179;42.640;23.312;2023-03-04T10:09:45;93625.59;;;11.78;50.74
20037;BME280;10179;42.640;23.312;2023-03-04T10:12:14;93626.41;;;11.78;50.43
20037;BME280;10179;42.640;23.312;2023-03-04T10:14:47;93617.16;;;11.87;50.53
20037;BME280;10179;42.640;23.312;2023-03-04T10:17:22;93626.97;;;11.92;50.20
20037;BME280;10179;42.640;23.312;2023-03-04T10:19:56;93621.25;;;11.95;50.01
20037;BME280;10179;42.640;23.312;2023-03-04T10:22:31;93616.66;;;12.02;49.84
20037;BME280;10179;42.640;23.312;2023-03-04T10:25:09;93616.19;;;12.05;49.53
20037;BME280;10179;42.640;23.312;2023-03-04T10:27:41;93608.75;;;12.02;49.12
20037;BME280;10179;42.640;23.312;2023-03-04T10:33:01;93603.56;;;12.07;49.48
20037;BME280;10179;42.640;23.312;2023-03-04T10:35:35;93595.88;;;12.17;49.36
20037;BME280;10179;42.640;23.312;2023-03-04T10:38:02;93587.31;;;12.10;49.11
20037;BME280;10179;42.640;23.312;2023-03-04T10:40:28;93596.91;;;12.16;48.96
20037;BME280;10179;42.640;23.312;2023-03-04T10:42:54;93586.22;;;12.23;49.11
20037;BME280;10179;42.640;23.312;2023-03-04T10:45:23;93588.47;;;12.31;49.06
20037;BME280;10179;42.640;23.312;2023-03-04T10:47:54;93586.28;;;12.40;49.21
20037;BME280;10179;42.640;23.312;2023-03-04T10:50:25;93517.53;;;12.08;48.71
20037;BME280;10179;42.640;23.312;2023-03-04T10:52:53;93566.25;;;12.39;48.42
20037;BME280;10179;42.640;23.312;2023-03-04T10:55:41;93568.19;;;12.60;48.56
20037;BME280;10179;42.640;23.312;2023-03-04T10:58:13;93571.63;;;12.61;48.44
20037;BME280;10179;42.640;23.312;2023-03-04T11:00:40;93549.94;;;12.42;48.51
20037;BME280;10179;42.640;23.312;2023-03-04T11:05:47;93499.09;;;12.25;48.12
20037;BME280;10179;42.640;23.312;2023-03-04T11:08:17;93557.22;;;12.69;48.17
20037;BME280;10179;42.640;23.312;2023-03-04T11:10:44;93554.50;;;12.63;48.05
20037;BME280;10179;42.640;23.312;2023-03-04T11:13:18;93541.09;;;12.65;48.43
20037;BME280;10179;42.640;23.312;2023-03-04T11:18:16;93538.78;;;12.69;48.60
20037;BME280;10179;42.640;23.312;2023-03-04T11:20:46;93532.16;;;12.66;48.97
20037;BME280;10179;42.640;23.312;2023-03-04T11:23:21;93499.59;;;12.55;49.36
20037;BME280;10179;42.640;23.312;2023-03-04T11:25:55;93530.72;;;12.75;49.59
20037;BME280;10179;42.640;23.312;2023-03-04T11:31:17;93521.28;;;12.79;49.66
20037;BME280;10179;42.640;23.312;2023-03-04T11:33:57;93513.44;;;12.84;49.81
20037;BME280;10179;42.640;23.312;2023-03-04T11:36:39;93511.06;;;12.83;49.86
20037;BME280;10179;42.640;23.312;2023-03-04T11:39:28;93503.72;;;12.85;49.99
20037;BME280;10179;42.640;23.312;2023-03-04T11:44:37;93505.22;;;12.81;50.48
20037;BME280;10179;42.640;23.312;2023-03-04T11:47:12;93503.63;;;12.80;50.23
20037;BME280;10179;42.640;23.312;2023-03-04T11:52:52;93498.94;;;12.82;49.76
20037;BME280;10179;42.640;23.312;2023-03-04T12:03:54;93490.88;;;12.72;49.37
20037;BME280;10179;42.640;23.312;2023-03-04T12:20:24;93476.34;;;12.69;49.97
20037;BME280;10179;42.640;23.312;2023-03-04T12:31:31;93479.81;;;12.92;49.71
20037;BME280;10179;42.640;23.312;2023-03-04T12:44:29;93454.81;;;12.94;48.37
20037;BME280;10179;42.640;23.312;2023-03-04T12:52:55;93444.28;;;12.94;48.32
20037;BME280;10179;42.640;23.312;2023-03-04T12:55:35;93440.91;;;12.99;48.65
20037;BME280;10179;42.640;23.312;2023-03-04T12:58:03;93441.41;;;12.96;48.29
20037;BME280;10179;42.640;23.312;2023-03-04T13:00:56;93433.84;;;13.04;48.46
20037;BME280;10179;42.640;23.312;2023-03-04T13:03:39;93421.53;;;13.10;48.26
20037;BME280;10179;42.640;23.312;2023-03-04T13:06:18;93425.50;;;13.12;48.31
20037;BME280;10179;42.640;23.312;2023-03-04T13:16:37;93413.50;;;13.22;47.94
20037;BME280;10179;42.640;23.312;2023-03-04T13:24:52;93411.97;;;13.26;47.16
20037;BME280;10179;42.640;23.312;2023-03-04T13:27:44;93408.84;;;13.29;47.58
20037;BME280;10179;42.640;23.312;2023-03-04T13:44:00;93402.59;;;13.35;47.80
20037;BME280;10179;42.640;23.312;2023-03-04T13:51:34;93394.81;;;13.23;47.49
20037;BME280;10179;42.640;23.312;2023-03-04T13:56:45;93393.06;;;13.12;47.65
20037;BME280;10179;42.640;23.312;2023-03-04T14:06:52;93398.34;;;13.12;48.11
20037;BME280;10179;42.640;23.312;2023-03-04T14:09:24;93375.47;;;13.18;47.86
20037;BME280;10179;42.640;23.312;2023-03-04T14:11:56;93361.00;;;12.98;47.62
20037;BME280;10179;42.640;23.312;2023-03-04T14:14:28;93376.94;;;13.08;47.60
20037;BME280;10179;42.640;23.312;2023-03-04T14:17:02;93369.97;;;12.97;47.77
20037;BME280;10179;42.640;23.312;2023-03-04T14:21:56;93364.97;;;12.96;48.03
20037;BME280;10179;42.640;23.312;2023-03-04T14:24:23;93365.25;;;12.99;48.03
20037;BME280;10179;42.640;23.312;2023-03-04T14:27:01;93296.25;;;12.58;48.09
20037;BME280;10179;42.640;23.312;2023-03-04T14:29:28;93354.66;;;12.94;48.09
20037;BME280;10179;42.640;23.312;2023-03-04T14:31:55;93355.75;;;12.98;47.97
20037;BME280;10179;42.640;23.312;2023-03-04T14:34:27;93301.59;;;12.63;48.20
20037;BME280;10179;42.640;23.312;2023-03-04T14:36:54;93362.03;;;12.92;48.19
20037;BME280;10179;42.640;23.312;2023-03-04T14:39:21;93343.50;;;12.87;48.23
20037;BME280;10179;42.640;23.312;2023-03-04T14:41:51;93346.22;;;12.92;48.42
20037;BME280;10179;42.640;23.312;2023-03-04T14:44:49;93348.41;;;13.00;48.27
20037;BME280;10179;42.640;23.312;2023-03-04T14:47:19;93351.53;;;12.97;48.22
20037;BME280;10179;42.640;23.312;2023-03-04T14:49:46;93348.34;;;12.95;48.16
20037;BME280;10179;42.640;23.312;2023-03-04T14:52:35;93346.06;;;13.04;47.93
20037;BME280;10179;42.640;23.312;2023-03-04T14:55:16;93325.13;;;12.92;48.04
20037;BME280;10179;42.640;23.312;2023-03-04T14:57:44;93286.09;;;12.67;48.29
20037;BME280;10179;42.640;23.312;2023-03-04T15:02:40;93316.94;;;12.94;48.08